sensor_id;sensor_type;location;lat;lon;timestamp;temperature;humidity
64858;SHT30;51335;51.148;6.950;2023-08-01T00:01:52;17.47;99.99
64858;SHT30;51335;51.148;6.950;2023-08-01T00:02:22;17.47;99.99
64858;SHT30;51335;51.148;6.950;2023-08-01T00:02:52;17.51;99.99
64858;SHT30;51335;51.148;6.950;2023-08-01T00:03:23;17.50;99.99
64858;SHT30;51335;51.148;6.950;2023-08-01T00:03:53;17.50;99.99
64858;SHT30;51335;51.148;6.950;2023-08-01T00:04:23;17.48;99.99
64858;SHT30;51335;51.148;6.950;2023-08-01T00:04:54;17.48;99.99
64858;SHT30;51335;51.148;6.950;2023-08-01T00:05:24;17.45;99.99
64858;SHT30;51335;51.148;6.950;2023-08-01T00:05:54;17.43;99.99
64858;SHT30;51335;51.148;6.950;2023-08-01T00:06:24;17.44;99.99
64858;SHT30;51335;51.148;6.950;2023-08-01T00:06:55;17.44;99.99
64858;SHT30;51335;51.148;6.950;2023-08-01T00:07:27;17.45;99.99
64858;SHT30;51335;51.148;6.950;2023-08-01T00:12:49;17.54;99.99
64858;SHT30;51335;51.148;6.950;2023-08-01T00:13:19;17.51;99.99
64858;SHT30;51335;51.148;6.950;2023-08-01T00:13:50;17.50;99.99
64858;SHT30;51335;51.148;6.950;2023-08-01T00:14:20;17.47;99.99
64858;SHT30;51335;51.148;6.950;2023-08-01T00:14:50;17.48;99.99
64858;SHT30;51335;51.148;6.950;2023-08-01T00:15:21;17.50;99.99
64858;SHT30;51335;51.148;6.950;2023-08-01T00:15:51;17.50;99.99
64858;SHT30;51335;51.148;6.950;2023-08-01T00:16:21;17.47;99.99
64858;SHT30;51335;51.148;6.950;2023-08-01T00:16:51;17.54;99.99
64858;SHT30;51335;51.148;6.950;2023-08-01T00:17:22;17.55;99.99
64858;SHT30;51335;51.148;6.950;2023-08-01T00:17:52;17.54;99.99
64858;SHT30;51335;51.148;6.950;2023-08-01T00:18:22;17.54;99.99
64858;SHT30;51335;51.148;6.950;2023-08-01T00:18:52;17.58;99.99
64858;SHT30;51335;51.148;6.950;2023-08-01T00:19:23;17.57;99.99
64858;SHT30;51335;51.148;6.950;2023-08-01T00:19:53;17.55;99.99
64858;SHT30;51335;51.148;6.950;2023-08-01T00:20:23;17.53;99.99
64858;SHT30;51335;51.148;6.950;2023-08-01T00:20:54;17.51;99.99
64858;SHT30;51335;51.148;6.950;2023-08-01T00:21:24;17.50;99.99
64858;SHT30;51335;51.148;6.950;2023-08-01T00:21:54;17.48;99.99
64858;SHT30;51335;51.148;6.950;2023-08-01T00:22:24;17.50;99.99
64858;SHT30;51335;51.148;6.950;2023-08-01T00:22:55;17.48;99.99
64858;SHT30;51335;51.148;6.950;2023-08-01T00:23:25;17.44;99.99
64858;SHT30;51335;51.148;6.950;2023-08-01T00:23:55;17.47;99.99
64858;SHT30;51335;51.148;6.950;2023-08-01T00:24:26;17.45;99.99
64858;SHT30;51335;51.148;6.950;2023-08-01T00:24:56;17.43;99.99
64858;SHT30;51335;51.148;6.950;2023-08-01T00:25:26;17.44;99.99
64858;SHT30;51335;51.148;6.950;2023-08-01T00:25:56;17.41;99.99
64858;SHT30;51335;51.148;6.950;2023-08-01T00:26:26;17.45;99.99
64858;SHT30;51335;51.148;6.950;2023-08-01T00:26:57;17.47;99.99
64858;SHT30;51335;51.148;6.950;2023-08-01T00:27:27;17.44;99.99
64858;SHT30;51335;51.148;6.950;2023-08-01T00:27:57;17.44;99.99
64858;SHT30;51335;51.148;6.950;2023-08-01T00:28:29;17.50;99.99
64858;SHT30;51335;51.148;6.950;2023-08-01T00:28:59;17.48;99.99
64858;SHT30;51335;51.148;6.950;2023-08-01T00:29:30;17.50;99.99
64858;SHT30;51335;51.148;6.950;2023-08-01T00:30:00;17.47;99.99
64858;SHT30;51335;51.148;6.950;2023-08-01T00:30:30;17.48;99.99
64858;SHT30;51335;51.148;6.950;2023-08-01T00:31:07;17.48;99.99
64858;SHT30;51335;51.148;6.950;2023-08-01T00:31:38;17.50;99.99
64858;SHT30;51335;51.148;6.950;2023-08-01T00:32:08;17.48;99.99
64858;SHT30;51335;51.148;6.950;2023-08-01T00:32:38;17.55;99.99
64858;SHT30;51335;51.148;6.950;2023-08-01T00:33:08;17.54;99.99
64858;SHT30;51335;51.148;6.950;2023-08-01T00:33:39;17.48;99.99
64858;SHT30;51335;51.148;6.950;2023-08-01T00:34:09;17.53;99.99
64858;SHT30;51335;51.148;6.950;2023-08-01T00:34:39;17.54;99.99
64858;SHT30;51335;51.148;6.950;2023-08-01T00:35:09;17.53;99.99
64858;SHT30;51335;51.148;6.950;2023-08-01T00:35:40;17.50;99.99
64858;SHT30;51335;51.148;6.950;2023-08-01T00:36:10;17.48;99.99
64858;SHT30;51335;51.148;6.950;2023-08-01T00:36:41;17.47;99.99
64858;SHT30;51335;51.148;6.950;2023-08-01T00:37:12;17.47;99.99
64858;SHT30;51335;51.148;6.950;2023-08-01T00:37:42;17.47;99.99
64858;SHT30;51335;51.148;6.950;2023-08-01T00:38:13;17.47;99.99
64858;SHT30;51335;51.148;6.950;2023-08-01T00:38:43;17.48;99.99
64858;SHT30;51335;51.148;6.950;2023-08-01T00:39:13;17.50;99.99
64858;SHT30;51335;51.148;6.950;2023-08-01T00:39:43;17.55;99.99
64858;SHT30;51335;51.148;6.950;2023-08-01T00:40:14;17.51;99.99
64858;SHT30;51335;51.148;6.950;2023-08-01T00:40:44;17.57;99.99
64858;SHT30;51335;51.148;6.950;2023-08-01T00:41:14;17.54;99.99
64858;SHT30;51335;51.148;6.950;2023-08-01T00:41:45;17.55;99.99
64858;SHT30;51335;51.148;6.950;2023-08-01T00:42:15;17.57;99.99
64858;SHT30;51335;51.148;6.950;2023-08-01T00:42:46;17.57;99.99
64858;SHT30;51335;51.148;6.950;2023-08-01T00:43:16;17.60;99.99
64858;SHT30;51335;51.148;6.950;2023-08-01T00:43:46;17.55;99.99
64858;SHT30;51335;51.148;6.950;2023-08-01T00:44:17;17.61;99.99
64858;SHT30;51335;51.148;6.950;2023-08-01T00:44:47;17.64;99.99
64858;SHT30;51335;51.148;6.950;2023-08-01T00:45:17;17.64;99.99
64858;SHT30;51335;51.148;6.950;2023-08-01T00:45:48;17.63;99.99
64858;SHT30;51335;51.148;6.950;2023-08-01T00:46:18;17.67;99.99
64858;SHT30;51335;51.148;6.950;2023-08-01T00:46:49;17.71;99.99
64858;SHT30;51335;51.148;6.950;2023-08-01T00:47:19;17.71;99.99
64858;SHT30;51335;51.148;6.950;2023-08-01T00:47:54;17.75;99.99
64858;SHT30;51335;51.148;6.950;2023-08-01T00:48:24;17.73;99.99
64858;SHT30;51335;51.148;6.950;2023-08-01T00:48:55;17.74;99.99
64858;SHT30;51335;51.148;6.950;2023-08-01T00:49:26;17.74;99.99
64858;SHT30;51335;51.148;6.950;2023-08-01T00:49:56;17.75;99.99
64858;SHT30;51335;51.148;6.950;2023-08-01T00:50:26;17.73;99.99
64858;SHT30;51335;51.148;6.950;2023-08-01T00:51:04;17.68;99.99
64858;SHT30;51335;51.148;6.950;2023-08-01T00:51:35;17.67;99.99
64858;SHT30;51335;51.148;6.950;2023-08-01T00:52:07;17.67;99.99
64858;SHT30;51335;51.148;6.950;2023-08-01T00:52:38;17.65;99.99
64858;SHT30;51335;51.148;6.950;2023-08-01T00:53:10;17.64;99.99
64858;SHT30;51335;51.148;6.950;2023-08-01T00:53:40;17.63;99.99
64858;SHT30;51335;51.148;6.950;2023-08-01T00:54:10;17.63;99.99
64858;SHT30;51335;51.148;6.950;2023-08-01T00:54:41;17.61;99.99
64858;SHT30;51335;51.148;6.950;2023-08-01T00:55:11;17.60;99.99
64858;SHT30;51335;51.148;6.950;2023-08-01T00:55:42;17.54;99.99
64858;SHT30;51335;51.148;6.950;2023-08-01T00:56:12;17.55;99.99
64858;SHT30;51335;51.148;6.950;2023-08-01T00:56:43;17.54;99.99
64858;SHT30;51335;51.148;6.950;2023-08-01T00:57:13;17.53;99.99
64858;SHT30;51335;51.148;6.950;2023-08-01T00:57:44;17.53;99.99
64858;SHT30;51335;51.148;6.950;2023-08-01T00:58:14;17.54;99.99
64858;SHT30;51335;51.148;6.950;2023-08-01T00:58:44;17.55;99.99
64858;SHT30;51335;51.148;6.950;2023-08-01T00:59:15;17.54;99.99
64858;SHT30;51335;51.148;6.950;2023-08-01T00:59:45;17.50;99.99
64858;SHT30;51335;51.148;6.950;2023-08-01T01:00:16;17.48;99.99
64858;SHT30;51335;51.148;6.950;2023-08-01T01:00:46;17.53;99.99
64858;SHT30;51335;51.148;6.950;2023-08-01T01:01:17;17.57;99.99
64858;SHT30;51335;51.148;6.950;2023-08-01T01:01:47;17.57;99.99
64858;SHT30;51335;51.148;6.950;2023-08-01T01:02:18;17.54;99.99
64858;SHT30;51335;51.148;6.950;2023-08-01T01:02:48;17.55;99.99
64858;SHT30;51335;51.148;6.950;2023-08-01T01:03:18;17.57;99.99
64858;SHT30;51335;51.148;6.950;2023-08-01T01:03:49;17.58;99.99
64858;SHT30;51335;51.148;6.950;2023-08-01T01:04:20;17.54;99.99
64858;SHT30;51335;51.148;6.950;2023-08-01T01:04:50;17.55;99.99
64858;SHT30;51335;51.148;6.950;2023-08-01T01:05:22;17.54;99.99
64858;SHT30;51335;51.148;6.950;2023-08-01T01:06:05;17.55;99.99
64858;SHT30;51335;51.148;6.950;2023-08-01T01:06:48;17.53;99.99
64858;SHT30;51335;51.148;6.950;2023-08-01T01:07:21;17.54;99.99
64858;SHT30;51335;51.148;6.950;2023-08-01T01:07:52;17.50;99.99
64858;SHT30;51335;51.148;6.950;2023-08-01T01:08:22;17.50;99.99
64858;SHT30;51335;51.148;6.950;2023-08-01T01:08:53;17.51;99.99
64858;SHT30;51335;51.148;6.950;2023-08-01T01:09:23;17.54;99.99
64858;SHT30;51335;51.148;6.950;2023-08-01T01:09:53;17.57;99.99
64858;SHT30;51335;51.148;6.950;2023-08-01T01:10:23;17.54;99.99
64858;SHT30;51335;51.148;6.950;2023-08-01T01:10:54;17.51;99.99
64858;SHT30;51335;51.148;6.950;2023-08-01T01:11:24;17.51;99.99
64858;SHT30;51335;51.148;6.950;2023-08-01T01:11:54;17.50;99.99
64858;SHT30;51335;51.148;6.950;2023-08-01T01:12:25;17.47;99.99
64858;SHT30;51335;51.148;6.950;2023-08-01T01:12:55;17.44;99.99
64858;SHT30;51335;51.148;6.950;2023-08-01T01:13:25;17.43;99.99
64858;SHT30;51335;51.148;6.950;2023-08-01T01:13:55;17.41;99.99
64858;SHT30;51335;51.148;6.950;2023-08-01T01:14:26;17.44;99.99
64858;SHT30;51335;51.148;6.950;2023-08-01T01:14:57;17.41;99.99
64858;SHT30;51335;51.148;6.950;2023-08-01T01:15:27;17.41;99.99
64858;SHT30;51335;51.148;6.950;2023-08-01T01:15:57;17.45;99.99
64858;SHT30;51335;51.148;6.950;2023-08-01T01:16:28;17.43;99.99
64858;SHT30;51335;51.148;6.950;2023-08-01T01:16:58;17.41;99.99
64858;SHT30;51335;51.148;6.950;2023-08-01T01:17:28;17.41;99.99
64858;SHT30;51335;51.148;6.950;2023-08-01T01:17:58;17.41;99.99
64858;SHT30;51335;51.148;6.950;2023-08-01T01:18:29;17.41;99.99
64858;SHT30;51335;51.148;6.950;2023-08-01T01:18:59;17.40;99.99
64858;SHT30;51335;51.148;6.950;2023-08-01T01:19:29;17.38;99.99
64858;SHT30;51335;51.148;6.950;2023-08-01T01:19:59;17.37;99.99
64858;SHT30;51335;51.148;6.950;2023-08-01T01:20:39;17.28;99.99
64858;SHT30;51335;51.148;6.950;2023-08-01T01:21:09;17.27;99.99
64858;SHT30;51335;51.148;6.950;2023-08-01T01:21:39;17.28;99.99
64858;SHT30;51335;51.148;6.950;2023-08-01T01:22:12;17.24;99.99
64858;SHT30;51335;51.148;6.950;2023-08-01T01:22:42;17.20;99.99
64858;SHT30;51335;51.148;6.950;2023-08-01T01:23:12;17.19;99.99
64858;SHT30;51335;51.148;6.950;2023-08-01T01:23:43;17.17;99.99
64858;SHT30;51335;51.148;6.950;2023-08-01T01:24:14;17.16;99.99
64858;SHT30;51335;51.148;6.950;2023-08-01T01:24:45;17.15;99.99
64858;SHT30;51335;51.148;6.950;2023-08-01T01:25:17;17.13;99.99
64858;SHT30;51335;51.148;6.950;2023-08-01T01:25:49;17.12;99.99
64858;SHT30;51335;51.148;6.950;2023-08-01T01:26:21;17.19;99.99
64858;SHT30;51335;51.148;6.950;2023-08-01T01:26:51;17.12;99.99
64858;SHT30;51335;51.148;6.950;2023-08-01T01:27:22;17.05;99.99
64858;SHT30;51335;51.148;6.950;2023-08-01T01:27:54;17.03;99.99
64858;SHT30;51335;51.148;6.950;2023-08-01T01:28:25;17.03;99.99
64858;SHT30;51335;51.148;6.950;2023-08-01T01:28:55;17.05;99.99
64858;SHT30;51335;51.148;6.950;2023-08-01T01:29:27;17.05;99.99
64858;SHT30;51335;51.148;6.950;2023-08-01T01:29:57;17.07;99.99
64858;SHT30;51335;51.148;6.950;2023-08-01T01:30:29;17.07;99.99
64858;SHT30;51335;51.148;6.950;2023-08-01T01:31:00;17.10;99.99
64858;SHT30;51335;51.148;6.950;2023-08-01T01:31:32;17.12;99.99
64858;SHT30;51335;51.148;6.950;2023-08-01T01:32:03;17.10;99.99
64858;SHT30;51335;51.148;6.950;2023-08-01T01:32:34;17.10;99.99
64858;SHT30;51335;51.148;6.950;2023-08-01T01:33:05;17.10;99.99
64858;SHT30;51335;51.148;6.950;2023-08-01T01:33:36;17.12;99.99
64858;SHT30;51335;51.148;6.950;2023-08-01T01:34:07;17.10;99.99
64858;SHT30;51335;51.148;6.950;2023-08-01T01:34:37;17.10;99.99
64858;SHT30;51335;51.148;6.950;2023-08-01T01:35:08;17.10;99.99
64858;SHT30;51335;51.148;6.950;2023-08-01T01:35:38;17.10;99.99
64858;SHT30;51335;51.148;6.950;2023-08-01T01:36:08;17.09;99.99
64858;SHT30;51335;51.148;6.950;2023-08-01T01:36:38;17.05;99.99
64858;SHT30;51335;51.148;6.950;2023-08-01T01:37:09;17.07;99.99
64858;SHT30;51335;51.148;6.950;2023-08-01T01:37:39;17.07;99.99
64858;SHT30;51335;51.148;6.950;2023-08-01T01:38:09;17.10;99.99
64858;SHT30;51335;51.148;6.950;2023-08-01T01:38:39;17.13;99.99
64858;SHT30;51335;51.148;6.950;2023-08-01T01:39:10;17.12;99.99
64858;SHT30;51335;51.148;6.950;2023-08-01T01:39:40;17.10;99.99
64858;SHT30;51335;51.148;6.950;2023-08-01T01:40:11;17.06;99.99
64858;SHT30;51335;51.148;6.950;2023-08-01T01:40:41;17.10;99.99
64858;SHT30;51335;51.148;6.950;2023-08-01T01:41:11;17.16;99.99
64858;SHT30;51335;51.148;6.950;2023-08-01T01:41:41;17.10;99.99
64858;SHT30;51335;51.148;6.950;2023-08-01T01:42:12;17.07;99.99
64858;SHT30;51335;51.148;6.950;2023-08-01T01:42:42;17.07;99.99
64858;SHT30;51335;51.148;6.950;2023-08-01T01:43:12;17.10;99.99
64858;SHT30;51335;51.148;6.950;2023-08-01T01:43:43;17.03;99.99
64858;SHT30;51335;51.148;6.950;2023-08-01T01:44:13;17.05;99.99
64858;SHT30;51335;51.148;6.950;2023-08-01T01:44:43;17.03;99.99
64858;SHT30;51335;51.148;6.950;2023-08-01T01:45:13;17.05;99.99
64858;SHT30;51335;51.148;6.950;2023-08-01T01:45:44;17.05;99.99
64858;SHT30;51335;51.148;6.950;2023-08-01T01:46:14;17.07;99.99
64858;SHT30;51335;51.148;6.950;2023-08-01T01:46:44;17.03;99.99
64858;SHT30;51335;51.148;6.950;2023-08-01T01:47:14;17.03;99.99
64858;SHT30;51335;51.148;6.950;2023-08-01T01:47:45;17.05;99.99
64858;SHT30;51335;51.148;6.950;2023-08-01T01:48:15;17.03;99.99
64858;SHT30;51335;51.148;6.950;2023-08-01T01:48:45;17.07;99.99
64858;SHT30;51335;51.148;6.950;2023-08-01T01:49:15;17.07;99.99
64858;SHT30;51335;51.148;6.950;2023-08-01T01:49:46;17.06;99.99
64858;SHT30;51335;51.148;6.950;2023-08-01T01:50:16;17.09;99.99
64858;SHT30;51335;51.148;6.950;2023-08-01T01:50:46;17.07;99.99
64858;SHT30;51335;51.148;6.950;2023-08-01T01:51:16;17.03;99.99
64858;SHT30;51335;51.148;6.950;2023-08-01T01:51:47;17.06;99.99
64858;SHT30;51335;51.148;6.950;2023-08-01T01:52:17;17.09;99.99
64858;SHT30;51335;51.148;6.950;2023-08-01T01:52:47;17.06;99.99
64858;SHT30;51335;51.148;6.950;2023-08-01T01:53:17;17.06;99.99
64858;SHT30;51335;51.148;6.950;2023-08-01T01:53:48;17.07;99.99
64858;SHT30;51335;51.148;6.950;2023-08-01T01:54:18;17.05;99.99
64858;SHT30;51335;51.148;6.950;2023-08-01T01:54:48;17.03;99.99
64858;SHT30;51335;51.148;6.950;2023-08-01T01:55:18;17.02;99.99
64858;SHT30;51335;51.148;6.950;2023-08-01T01:55:49;17.00;99.99
64858;SHT30;51335;51.148;6.950;2023-08-01T01:56:19;17.00;99.99
64858;SHT30;51335;51.148;6.950;2023-08-01T01:56:49;16.96;99.99
64858;SHT30;51335;51.148;6.950;2023-08-01T01:57:19;16.99;99.99
64858;SHT30;51335;51.148;6.950;2023-08-01T01:57:50;16.96;99.99
64858;SHT30;51335;51.148;6.950;2023-08-01T01:58:20;16.96;99.99
64858;SHT30;51335;51.148;6.950;2023-08-01T01:58:50;16.97;99.99
64858;SHT30;51335;51.148;6.950;2023-08-01T01:59:20;16.95;99.99
64858;SHT30;51335;51.148;6.950;2023-08-01T01:59:51;16.99;99.99
64858;SHT30;51335;51.148;6.950;2023-08-01T02:00:21;17.00;99.99
64858;SHT30;51335;51.148;6.950;2023-08-01T02:00:51;16.99;99.99
64858;SHT30;51335;51.148;6.950;2023-08-01T02:01:21;17.02;99.99
64858;SHT30;51335;51.148;6.950;2023-08-01T02:01:52;17.02;99.99
64858;SHT30;51335;51.148;6.950;2023-08-01T02:02:22;17.00;99.99
64858;SHT30;51335;51.148;6.950;2023-08-01T02:02:52;17.02;99.99
64858;SHT30;51335;51.148;6.950;2023-08-01T02:03:22;17.05;99.99
64858;SHT30;51335;51.148;6.950;2023-08-01T02:03:53;17.03;99.99
64858;SHT30;51335;51.148;6.950;2023-08-01T02:04:23;17.00;99.99
64858;SHT30;51335;51.148;6.950;2023-08-01T02:04:53;17.03;99.99
64858;SHT30;51335;51.148;6.950;2023-08-01T02:05:23;17.05;99.99
64858;SHT30;51335;51.148;6.950;2023-08-01T02:05:54;17.03;99.99
64858;SHT30;51335;51.148;6.950;2023-08-01T02:06:24;17.03;99.99
64858;SHT30;51335;51.148;6.950;2023-08-01T02:06:54;17.05;99.99
64858;SHT30;51335;51.148;6.950;2023-08-01T02:07:25;17.06;99.99
64858;SHT30;51335;51.148;6.950;2023-08-01T02:07:55;17.06;99.99
64858;SHT30;51335;51.148;6.950;2023-08-01T02:08:25;17.05;99.99
64858;SHT30;51335;51.148;6.950;2023-08-01T02:08:56;17.07;99.99
64858;SHT30;51335;51.148;6.950;2023-08-01T02:09:26;17.09;99.99
64858;SHT30;51335;51.148;6.950;2023-08-01T02:09:56;17.07;99.99
64858;SHT30;51335;51.148;6.950;2023-08-01T02:10:26;17.12;99.99
64858;SHT30;51335;51.148;6.950;2023-08-01T02:10:57;17.12;99.99
64858;SHT30;51335;51.148;6.950;2023-08-01T02:11:27;17.10;99.99
64858;SHT30;51335;51.148;6.950;2023-08-01T02:11:57;17.12;99.99
64858;SHT30;51335;51.148;6.950;2023-08-01T02:12:28;17.12;99.99
64858;SHT30;51335;51.148;6.950;2023-08-01T02:12:58;17.13;99.99
64858;SHT30;51335;51.148;6.950;2023-08-01T02:13:29;17.15;99.99
64858;SHT30;51335;51.148;6.950;2023-08-01T02:13:59;17.15;99.99
64858;SHT30;51335;51.148;6.950;2023-08-01T02:14:30;17.16;99.99
64858;SHT30;51335;51.148;6.950;2023-08-01T02:15:00;17.12;99.99
64858;SHT30;51335;51.148;6.950;2023-08-01T02:15:30;17.17;99.99
64858;SHT30;51335;51.148;6.950;2023-08-01T02:16:01;17.17;99.99
64858;SHT30;51335;51.148;6.950;2023-08-01T02:16:31;17.17;99.99
64858;SHT30;51335;51.148;6.950;2023-08-01T02:17:02;17.16;99.99
64858;SHT30;51335;51.148;6.950;2023-08-01T02:17:32;17.22;99.99
64858;SHT30;51335;51.148;6.950;2023-08-01T02:18:02;17.19;99.99
64858;SHT30;51335;51.148;6.950;2023-08-01T02:18:32;17.17;99.99
64858;SHT30;51335;51.148;6.950;2023-08-01T02:19:03;17.17;99.99
64858;SHT30;51335;51.148;6.950;2023-08-01T02:19:33;17.16;99.99
64858;SHT30;51335;51.148;6.950;2023-08-01T02:20:04;17.13;99.99
64858;SHT30;51335;51.148;6.950;2023-08-01T02:20:34;17.13;99.99
64858;SHT30;51335;51.148;6.950;2023-08-01T02:21:05;17.15;99.99
64858;SHT30;51335;51.148;6.950;2023-08-01T02:21:35;17.12;99.99
64858;SHT30;51335;51.148;6.950;2023-08-01T02:22:05;17.16;99.99
64858;SHT30;51335;51.148;6.950;2023-08-01T02:22:36;17.20;99.99
64858;SHT30;51335;51.148;6.950;2023-08-01T02:23:06;17.22;99.99
64858;SHT30;51335;51.148;6.950;2023-08-01T02:23:36;17.17;99.99
64858;SHT30;51335;51.148;6.950;2023-08-01T02:24:06;17.15;99.99
64858;SHT30;51335;51.148;6.950;2023-08-01T02:24:37;17.20;99.99
64858;SHT30;51335;51.148;6.950;2023-08-01T02:25:07;17.15;99.99
64858;SHT30;51335;51.148;6.950;2023-08-01T02:25:39;17.13;99.99
64858;SHT30;51335;51.148;6.950;2023-08-01T02:26:09;17.12;99.99
64858;SHT30;51335;51.148;6.950;2023-08-01T02:26:39;17.10;99.99
64858;SHT30;51335;51.148;6.950;2023-08-01T02:27:09;17.07;99.99
64858;SHT30;51335;51.148;6.950;2023-08-01T02:27:40;17.02;99.99
64858;SHT30;51335;51.148;6.950;2023-08-01T02:28:10;17.02;99.99
64858;SHT30;51335;51.148;6.950;2023-08-01T02:28:40;17.09;99.99
64858;SHT30;51335;51.148;6.950;2023-08-01T02:29:10;17.12;99.99
64858;SHT30;51335;51.148;6.950;2023-08-01T02:29:41;17.12;99.99
64858;SHT30;51335;51.148;6.950;2023-08-01T02:30:11;17.12;99.99
64858;SHT30;51335;51.148;6.950;2023-08-01T02:30:41;17.13;99.99
64858;SHT30;51335;51.148;6.950;2023-08-01T02:31:12;17.07;99.99
64858;SHT30;51335;51.148;6.950;2023-08-01T02:31:42;17.15;99.99
64858;SHT30;51335;51.148;6.950;2023-08-01T02:32:12;17.17;99.99
64858;SHT30;51335;51.148;6.950;2023-08-01T02:32:42;17.13;99.99
64858;SHT30;51335;51.148;6.950;2023-08-01T02:33:13;17.22;99.99
64858;SHT30;51335;51.148;6.950;2023-08-01T02:33:43;17.20;99.99
64858;SHT30;51335;51.148;6.950;2023-08-01T02:34:13;17.19;99.99
64858;SHT30;51335;51.148;6.950;2023-08-01T02:34:43;17.17;99.99
64858;SHT30;51335;51.148;6.950;2023-08-01T02:35:14;17.17;99.99
64858;SHT30;51335;51.148;6.950;2023-08-01T02:35:46;17.20;99.99
64858;SHT30;51335;51.148;6.950;2023-08-01T02:36:16;17.20;99.99
64858;SHT30;51335;51.148;6.950;2023-08-01T02:36:46;17.22;99.99
64858;SHT30;51335;51.148;6.950;2023-08-01T02:37:16;17.16;99.99
64858;SHT30;51335;51.148;6.950;2023-08-01T02:37:47;17.09;99.99
64858;SHT30;51335;51.148;6.950;2023-08-01T02:38:17;17.03;99.99
64858;SHT30;51335;51.148;6.950;2023-08-01T02:38:47;17.02;99.99
64858;SHT30;51335;51.148;6.950;2023-08-01T02:39:18;17.09;99.99
64858;SHT30;51335;51.148;6.950;2023-08-01T02:39:48;17.09;99.99
64858;SHT30;51335;51.148;6.950;2023-08-01T02:40:18;17.05;99.99
64858;SHT30;51335;51.148;6.950;2023-08-01T02:40:48;17.06;99.99
64858;SHT30;51335;51.148;6.950;2023-08-01T02:41:19;17.07;99.99
64858;SHT30;51335;51.148;6.950;2023-08-01T02:41:49;17.06;99.99
64858;SHT30;51335;51.148;6.950;2023-08-01T02:42:19;17.07;99.99
64858;SHT30;51335;51.148;6.950;2023-08-01T02:42:49;17.07;99.99
64858;SHT30;51335;51.148;6.950;2023-08-01T02:43:20;17.07;99.99
64858;SHT30;51335;51.148;6.950;2023-08-01T02:43:50;17.07;99.99
64858;SHT30;51335;51.148;6.950;2023-08-01T02:44:20;17.06;99.99
64858;SHT30;51335;51.148;6.950;2023-08-01T02:44:50;17.05;99.99
64858;SHT30;51335;51.148;6.950;2023-08-01T02:45:21;17.00;99.99
64858;SHT30;51335;51.148;6.950;2023-08-01T02:45:51;17.05;99.99
64858;SHT30;51335;51.148;6.950;2023-08-01T02:46:21;17.05;99.99
64858;SHT30;51335;51.148;6.950;2023-08-01T02:46:51;17.07;99.99
64858;SHT30;51335;51.148;6.950;2023-08-01T02:47:22;17.05;99.99
64858;SHT30;51335;51.148;6.950;2023-08-01T02:47:52;17.07;99.99
64858;SHT30;51335;51.148;6.950;2023-08-01T02:48:22;17.09;99.99
64858;SHT30;51335;51.148;6.950;2023-08-01T02:48:52;17.05;99.99
64858;SHT30;51335;51.148;6.950;2023-08-01T02:49:23;17.06;99.99
64858;SHT30;51335;51.148;6.950;2023-08-01T02:49:53;17.12;99.99
64858;SHT30;51335;51.148;6.950;2023-08-01T02:50:23;17.09;99.99
64858;SHT30;51335;51.148;6.950;2023-08-01T02:50:53;17.09;99.99
64858;SHT30;51335;51.148;6.950;2023-08-01T02:51:24;17.07;99.99
64858;SHT30;51335;51.148;6.950;2023-08-01T02:51:54;17.06;99.99
64858;SHT30;51335;51.148;6.950;2023-08-01T02:52:24;17.05;99.99
64858;SHT30;51335;51.148;6.950;2023-08-01T02:52:54;17.03;99.99
64858;SHT30;51335;51.148;6.950;2023-08-01T02:53:25;17.02;99.99
64858;SHT30;51335;51.148;6.950;2023-08-01T02:53:55;16.99;99.99
64858;SHT30;51335;51.148;6.950;2023-08-01T02:54:25;16.97;99.99
64858;SHT30;51335;51.148;6.950;2023-08-01T02:54:55;16.97;99.99
64858;SHT30;51335;51.148;6.950;2023-08-01T02:55:26;16.93;99.99
64858;SHT30;51335;51.148;6.950;2023-08-01T02:55:56;16.89;99.99
64858;SHT30;51335;51.148;6.950;2023-08-01T02:56:26;16.90;99.99
64858;SHT30;51335;51.148;6.950;2023-08-01T02:56:56;16.90;99.99
64858;SHT30;51335;51.148;6.950;2023-08-01T02:57:27;16.96;99.99
64858;SHT30;51335;51.148;6.950;2023-08-01T02:57:57;16.96;99.99
64858;SHT30;51335;51.148;6.950;2023-08-01T02:58:27;16.95;99.99
64858;SHT30;51335;51.148;6.950;2023-08-01T02:58:57;17.00;99.99
64858;SHT30;51335;51.148;6.950;2023-08-01T02:59:28;17.00;99.99
64858;SHT30;51335;51.148;6.950;2023-08-01T02:59:58;16.99;99.99
64858;SHT30;51335;51.148;6.950;2023-08-01T03:00:28;16.96;99.99
64858;SHT30;51335;51.148;6.950;2023-08-01T03:00:58;16.93;99.99
64858;SHT30;51335;51.148;6.950;2023-08-01T03:01:28;17.00;99.99
64858;SHT30;51335;51.148;6.950;2023-08-01T03:01:59;17.00;99.99
64858;SHT30;51335;51.148;6.950;2023-08-01T03:02:29;17.06;99.99
64858;SHT30;51335;51.148;6.950;2023-08-01T03:03:00;17.05;99.99
64858;SHT30;51335;51.148;6.950;2023-08-01T03:03:30;17.02;99.99
64858;SHT30;51335;51.148;6.950;2023-08-01T03:04:04;16.99;99.99
64858;SHT30;51335;51.148;6.950;2023-08-01T03:04:34;16.90;99.99
64858;SHT30;51335;51.148;6.950;2023-08-01T03:05:08;16.93;99.99
64858;SHT30;51335;51.148;6.950;2023-08-01T03:05:38;16.95;99.99
64858;SHT30;51335;51.148;6.950;2023-08-01T03:06:09;16.95;99.99
64858;SHT30;51335;51.148;6.950;2023-08-01T03:06:39;16.93;99.99
64858;SHT30;51335;51.148;6.950;2023-08-01T03:07:09;16.93;99.99
64858;SHT30;51335;51.148;6.950;2023-08-01T03:07:39;16.95;99.99
64858;SHT30;51335;51.148;6.950;2023-08-01T03:08:10;17.00;99.99
64858;SHT30;51335;51.148;6.950;2023-08-01T03:08:40;17.00;99.99
64858;SHT30;51335;51.148;6.950;2023-08-01T03:09:10;17.02;99.99
64858;SHT30;51335;51.148;6.950;2023-08-01T03:09:40;17.03;99.99
64858;SHT30;51335;51.148;6.950;2023-08-01T03:10:11;17.12;99.99
64858;SHT30;51335;51.148;6.950;2023-08-01T03:10:41;17.05;99.99
64858;SHT30;51335;51.148;6.950;2023-08-01T03:11:11;17.05;99.99
64858;SHT30;51335;51.148;6.950;2023-08-01T03:11:41;17.02;99.99
64858;SHT30;51335;51.148;6.950;2023-08-01T03:12:12;17.00;99.99
64858;SHT30;51335;51.148;6.950;2023-08-01T03:12:42;16.93;99.99
64858;SHT30;51335;51.148;6.950;2023-08-01T03:13:12;16.92;99.99
64858;SHT30;51335;51.148;6.950;2023-08-01T03:13:42;16.86;99.99
64858;SHT30;51335;51.148;6.950;2023-08-01T03:14:13;16.85;99.99
64858;SHT30;51335;51.148;6.950;2023-08-01T03:14:43;16.88;99.99
64858;SHT30;51335;51.148;6.950;2023-08-01T03:15:13;16.86;99.99
64858;SHT30;51335;51.148;6.950;2023-08-01T03:15:43;16.83;99.99
64858;SHT30;51335;51.148;6.950;2023-08-01T03:16:14;16.80;99.99
64858;SHT30;51335;51.148;6.950;2023-08-01T03:16:44;16.85;99.99
64858;SHT30;51335;51.148;6.950;2023-08-01T03:17:14;16.85;99.99
64858;SHT30;51335;51.148;6.950;2023-08-01T03:17:44;16.86;99.99
64858;SHT30;51335;51.148;6.950;2023-08-01T03:18:15;16.83;99.99
64858;SHT30;51335;51.148;6.950;2023-08-01T03:18:45;16.85;99.99
64858;SHT30;51335;51.148;6.950;2023-08-01T03:19:15;16.85;99.99